Time;durP1;ratioP1;P1;durP2;ratioP2;P2;SDS_P1;SDS_P2;PMS_P1;PMS_P2;Temp;Humidity;BMP_temperature;BMP_pressure;BME280_temperature;BME280_humidity;BME280_pressure;Samples;Min_cycle;Max_cycle;Signal;HPM_P1;HPM_P2
2022/12/20 00:00:59;;;;;;;3.30;1.52;;;;;;;9.16;70.09;101335.59;5104942;28;20048;-72
2022/12/20 00:03:26;;;;;;;4.22;1.83;;;;;;;9.18;70.17;101347.75;5110923;28;20101;-72
2022/12/20 00:05:56;;;;;;;4.05;1.60;;;;;;;9.17;69.64;101337.25;5106077;28;20071;-72
2022/12/20 00:08:23;;;;;;;5.03;1.50;;;;;;;9.16;69.77;101339.09;5110204;28;20087;-72
2022/12/20 00:10:51;;;;;;;2.70;1.55;;;;;;;9.15;69.93;101340.13;5098845;28;20067;-71
2022/12/20 00:13:19;;;;;;;2.53;1.60;;;;;;;9.17;70.07;101340.75;5105656;28;20087;-71
2022/12/20 00:15:46;;;;;;;4.28;1.80;;;;;;;9.18;70.55;101345.09;5103477;28;20043;-71
2022/12/20 00:18:14;;;;;;;3.03;1.52;;;;;;;9.18;70.51;101336.22;5105817;28;20107;-71
2022/12/20 00:20:42;;;;;;;4.38;1.80;;;;;;;9.18;69.81;101323.63;5105200;28;20083;-71
2022/12/20 00:23:11;;;;;;;3.63;1.50;;;;;;;9.18;70.32;101330.84;5101901;28;20048;-72
2022/12/20 00:25:39;;;;;;;3.03;1.60;;;;;;;9.18;70.17;101320.94;5104557;28;20115;-72
2022/12/20 00:28:07;;;;;;;2.28;1.40;;;;;;;9.17;69.89;101324.66;5107767;28;20049;-72
2022/12/20 00:30:35;;;;;;;2.15;1.70;;;;;;;9.17;70.35;101313.09;5109053;28;20071;-73
2022/12/20 00:33:03;;;;;;;2.72;1.60;;;;;;;9.17;70.28;101324.66;5100458;28;20071;-72
2022/12/20 00:35:31;;;;;;;2.60;1.58;;;;;;;9.18;70.37;101323.63;5104075;28;20043;-72
2022/12/20 00:37:59;;;;;;;2.63;1.52;;;;;;;9.20;70.22;101315.38;5104528;28;20048;-72
2022/12/20 00:40:28;;;;;;;4.47;1.83;;;;;;;9.20;70.29;101310.84;5115865;28;20048;-72
2022/12/20 00:42:55;;;;;;;2.95;1.38;;;;;;;9.19;70.01;101306.50;5113588;28;20054;-72
2022/12/20 00:45:23;;;;;;;3.53;1.40;;;;;;;9.21;70.02;101303.63;5105150;28;20044;-72
2022/12/20 00:47:51;;;;;;;3.35;1.70;;;;;;;9.20;69.88;101293.94;5103902;28;20112;-72
2022/12/20 00:50:18;;;;;;;2.42;1.60;;;;;;;9.20;70.32;101294.75;5112732;28;20381;-72
2022/12/20 00:52:46;;;;;;;5.32;1.83;;;;;;;9.21;70.56;101300.94;5104034;28;20044;-72
2022/12/20 00:55:14;;;;;;;4.90;1.60;;;;;;;9.21;70.39;101311.69;5102385;28;20268;-72
2022/12/20 00:57:43;;;;;;;2.38;1.40;;;;;;;9.22;70.43;101310.66;5106458;28;20126;-73
2022/12/20 01:00:11;;;;;;;2.70;1.70;;;;;;;9.21;70.43;101317.03;5104056;28;20134;-72
2022/12/20 01:02:39;;;;;;;3.58;1.55;;;;;;;9.21;69.85;101306.31;5106690;28;20206;-72
2022/12/20 01:05:08;;;;;;;5.20;1.48;;;;;;;9.21;70.08;101306.31;5092945;28;20122;-72
2022/12/20 01:07:35;;;;;;;3.65;1.67;;;;;;;9.20;70.04;101305.47;5098606;28;20117;-72
2022/12/20 01:10:03;;;;;;;3.28;1.60;;;;;;;9.20;69.94;101310.84;5103785;28;20129;-72
2022/12/20 01:12:31;;;;;;;2.38;1.40;;;;;;;9.21;70.09;101323.22;5102923;28;20537;-72
2022/12/20 01:15:00;;;;;;;2.60;1.60;;;;;;;9.24;69.89;101330.03;5111659;28;20055;-72
2022/12/20 01:17:28;;;;;;;3.03;1.20;;;;;;;9.23;69.94;101325.72;5114601;28;20079;-73
2022/12/20 01:19:56;;;;;;;2.53;1.42;;;;;;;9.23;70.15;101320.34;5102338;28;20040;-71
2022/12/20 01:22:24;;;;;;;2.55;1.77;;;;;;;9.25;70.49;101310.25;5104119;28;20396;-72
2022/12/20 01:24:51;;;;;;;3.00;1.73;;;;;;;9.25;69.91;101299.50;5102836;28;20048;-72
2022/12/20 01:27:19;;;;;;;4.18;1.98;;;;;;;9.24;70.55;101325.50;5107549;28;20048;-72
2022/12/20 01:29:47;;;;;;;2.33;1.50;;;;;;;9.23;70.43;101314.97;5107663;28;20108;-74
2022/12/20 01:32:16;;;;;;;2.47;1.50;;;;;;;9.23;70.29;101329.22;5100863;28;20181;-72
2022/12/20 01:34:44;;;;;;;4.72;1.70;;;;;;;9.23;70.52;101323.03;5106266;28;20044;-72
2022/12/20 01:37:12;;;;;;;2.97;1.60;;;;;;;9.23;71.09;101314.97;5102978;28;20048;-72
2022/12/20 01:39:40;;;;;;;4.82;1.67;;;;;;;9.22;71.09;101306.09;5107131;28;20072;-73
2022/12/20 01:42:13;;;;;;;2.40;1.60;;;;;;;9.23;70.88;101309.63;5099369;28;20050;-74
2022/12/20 01:44:55;;;;;;;5.10;1.98;;;;;;;9.14;71.20;101292.88;5092347;28;20132;-73
2022/12/20 01:47:27;;;;;;;3.03;1.85;;;;;;;9.23;70.79;101293.53;5103397;28;20051;-74
2022/12/20 01:49:58;;;;;;;3.45;1.60;;;;;;;9.23;70.39;101291.66;5103874;28;20153;-73
2022/12/20 01:52:32;;;;;;;3.60;1.65;;;;;;;9.26;71.00;101277.03;5102149;28;20060;-73
2022/12/20 01:55:08;;;;;;;3.00;1.60;;;;;;;9.26;70.81;101266.31;5102167;28;21372;-73
2022/12/20 01:57:42;;;;;;;2.20;1.50;;;;;;;9.26;71.39;101269.81;5104528;28;20076;-73
2022/12/20 02:00:11;;;;;;;2.53;1.80;;;;;;;9.26;71.36;101272.50;5102336;28;20103;-73
2022/12/20 02:02:41;;;;;;;3.83;1.60;;;;;;;9.24;70.72;101263.81;5113746;28;20107;-73
2022/12/20 02:05:10;;;;;;;2.58;1.83;;;;;;;9.27;71.42;101266.09;5098880;28;20558;-73
2022/12/20 02:07:38;;;;;;;2.15;1.65;;;;;;;9.23;71.12;101274.75;5103068;28;20076;-73
2022/12/20 02:10:08;;;;;;;2.55;1.73;;;;;;;9.28;71.25;101283.03;5098227;28;20048;-73
2022/12/20 02:12:41;;;;;;;4.10;1.50;;;;;;;9.28;71.12;101275.78;5101975;28;20107;-74
2022/12/20 02:15:25;;;;;;;1.75;1.30;;;;;;;9.29;71.63;101271.25;5102373;28;20134;-73
2022/12/20 02:18:07;;;;;;;2.30;1.65;;;;;;;9.29;71.62;101268.59;5106256;28;20075;-74
2022/12/20 02:20:52;;;;;;;4.43;1.70;;;;;;;9.29;70.98;101256.00;5103280;28;20535;-74
2022/12/20 02:23:44;;;;;;;2.50;1.65;;;;;;;9.29;71.57;101247.94;5100066;28;20040;-74
2022/12/20 02:26:35;;;;;;;3.10;1.70;;;;;;;9.29;71.42;101241.75;5061049;28;20066;-74
2022/12/20 02:29:21;;;;;;;2.70;1.50;;;;;;;9.29;71.28;101247.13;5100828;28;20044;-74
2022/12/20 02:31:57;;;;;;;3.13;1.73;;;;;;;9.29;71.49;101242.59;5091336;28;20044;-74
2022/12/20 02:34:28;;;;;;;1.85;1.50;;;;;;;9.28;72.04;101240.94;5103237;28;20048;-74
2022/12/20 02:36:56;;;;;;;2.95;1.42;;;;;;;9.29;71.89;101236.41;5104144;28;20064;-74
2022/12/20 02:39:27;;;;;;;2.60;1.52;;;;;;;9.29;71.62;101237.22;5102474;28;20836;-73
2022/12/20 02:41:58;;;;;;;3.78;2.40;;;;;;;9.32;71.66;101233.31;5102649;28;20131;-74
2022/12/20 02:47:31;;;;;;;4.45;1.67;;;;;;;9.31;71.74;101227.13;5019378;28;20060;-74
2022/12/20 02:50:00;;;;;;;2.30;1.45;;;;;;;9.35;72.33;101219.47;5019352;28;20069;-73
2022/12/20 02:52:31;;;;;;;4.25;1.52;;;;;;;9.36;72.19;101221.13;5019679;28;20507;-74
2022/12/20 02:55:00;;;;;;;6.05;1.70;;;;;;;9.32;72.19;101214.53;5016245;28;20149;-73
2022/12/20 02:57:37;;;;;;;2.25;1.52;;;;;;;9.37;72.31;101212.88;5019505;28;20502;-73
2022/12/20 03:00:08;;;;;;;2.10;1.42;;;;;;;9.37;72.37;101212.06;5018321;28;20046;-74
2022/12/20 03:05:23;;;;;;;3.85;1.75;;;;;;;9.37;72.56;101228.16;5019857;28;20073;-73
2022/12/20 03:07:52;;;;;;;3.70;1.75;;;;;;;9.31;71.87;101223.59;5019016;28;20046;-74
2022/12/20 03:10:20;;;;;;;3.42;1.60;;;;;;;9.36;72.24;101219.28;5019388;28;20060;-73
2022/12/20 03:12:48;;;;;;;5.53;2.00;;;;;;;9.36;72.42;101216.59;5019262;28;20084;-73
2022/12/20 03:15:16;;;;;;;4.05;1.80;;;;;;;9.37;72.37;101222.78;5016236;28;20096;-73
2022/12/20 03:17:45;;;;;;;2.60;1.52;;;;;;;9.36;72.64;101221.13;5019798;28;20534;-73
2022/12/20 03:20:13;;;;;;;3.53;1.50;;;;;;;9.36;72.67;101226.50;5023437;28;20113;-73
2022/12/20 03:22:41;;;;;;;3.63;2.05;;;;;;;9.35;72.13;101208.75;5039874;28;20104;-73
2022/12/20 03:25:09;;;;;;;2.55;1.50;;;;;;;9.35;72.43;101204.22;5093106;28;20127;-73
2022/12/20 03:27:37;;;;;;;7.03;2.92;;;;;;;9.36;71.97;101205.88;5109998;28;20108;-73
2022/12/20 03:30:06;;;;;;;2.70;1.42;;;;;;;9.36;71.70;101216.59;5116061;28;20071;-72
2022/12/20 03:32:34;;;;;;;3.08;1.25;;;;;;;9.36;72.52;101207.72;5091523;28;20039;-73
2022/12/20 03:35:04;;;;;;;3.72;1.67;;;;;;;9.37;72.38;101217.44;5105335;28;20084;-73
2022/12/20 03:37:32;;;;;;;2.50;1.60;;;;;;;9.37;72.02;101217.44;5104147;28;20082;-73
2022/12/20 03:39:59;;;;;;;2.72;1.70;;;;;;;9.35;72.00;101206.06;5115309;28;20079;-73
2022/12/20 03:42:27;;;;;;;4.15;1.85;;;;;;;9.38;71.80;101222.59;5110042;28;20100;-73
2022/12/20 03:44:55;;;;;;;4.43;2.03;;;;;;;9.40;71.90;101225.06;5112533;28;20465;-73
2022/12/20 03:47:23;;;;;;;2.58;1.60;;;;;;;9.41;72.22;101224.03;5104329;28;20048;-73
2022/12/20 03:49:51;;;;;;;4.05;1.30;;;;;;;9.40;71.99;101223.22;5101119;28;20052;-73
2022/12/20 03:52:20;;;;;;;2.63;1.85;;;;;;;9.40;72.08;101217.00;5114074;28;20071;-73
2022/12/20 03:54:48;;;;;;;2.33;1.55;;;;;;;9.36;71.72;101211.22;5111541;28;20086;-73
2022/12/20 03:57:15;;;;;;;2.85;1.70;;;;;;;9.36;72.36;101213.09;5103157;28;20075;-73
2022/12/20 03:59:43;;;;;;;2.28;1.30;;;;;;;9.44;72.10;101220.94;5104547;28;20059;-73
2022/12/20 04:02:11;;;;;;;3.63;1.98;;;;;;;9.45;72.33;101225.28;5105880;28;20047;-73
2022/12/20 04:04:39;;;;;;;2.90;1.42;;;;;;;9.46;72.23;101208.16;5098666;28;20109;-73
2022/12/20 04:07:07;;;;;;;3.55;1.42;;;;;;;9.45;72.05;101206.50;5100454;28;20048;-73
2022/12/20 04:09:36;;;;;;;2.65;1.40;;;;;;;9.46;72.03;101208.16;5105023;28;20113;-73
2022/12/20 04:12:04;;;;;;;3.85;1.67;;;;;;;9.45;72.22;101201.97;5105194;28;20078;-73
2022/12/20 04:14:31;;;;;;;5.15;2.42;;;;;;;9.46;72.36;101208.16;5096441;28;20087;-72
2022/12/20 04:16:59;;;;;;;2.95;1.45;;;;;;;9.47;72.56;101209.78;5105471;28;20139;-72
2022/12/20 04:19:27;;;;;;;3.92;1.60;;;;;;;9.48;72.53;101205.25;5100067;28;20044;-72
2022/12/20 04:21:57;;;;;;;5.03;1.48;;;;;;;9.48;71.99;101205.25;5105213;28;20135;-72
2022/12/20 04:24:32;;;;;;;2.17;1.30;;;;;;;9.48;72.27;101199.91;5101741;28;20048;-73
2022/12/20 04:27:01;;;;;;;3.83;1.80;;;;;;;9.48;72.12;101198.03;5104808;28;20046;-73
2022/12/20 04:29:29;;;;;;;3.92;1.80;;;;;;;9.49;72.79;101201.53;5112461;28;20134;-73
2022/12/20 04:31:56;;;;;;;2.45;1.40;;;;;;;9.48;72.82;101198.03;5095745;28;20544;-73
2022/12/20 04:34:24;;;;;;;4.18;1.83;;;;;;;9.49;72.56;101197.00;5106144;28;20043;-74
2022/12/20 04:36:52;;;;;;;1.90;1.48;;;;;;;9.49;72.27;101193.50;5111176;28;20056;-73
2022/12/20 04:39:20;;;;;;;2.20;1.50;;;;;;;9.50;72.66;101185.25;5115454;28;20131;-72
2022/12/20 04:41:48;;;;;;;2.63;1.17;;;;;;;9.52;72.93;101190.41;5098447;28;20071;-73
2022/12/20 04:44:17;;;;;;;4.30;1.67;;;;;;;9.51;72.30;101183.38;5102313;28;20082;-73
2022/12/20 04:46:45;;;;;;;2.80;1.50;;;;;;;9.51;72.70;101191.44;5103168;28;20108;-73
2022/12/20 04:49:12;;;;;;;2.38;1.38;;;;;;;9.51;72.89;101194.94;5113394;28;20120;-73
2022/12/20 04:51:40;;;;;;;2.17;1.52;;;;;;;9.51;72.30;101181.53;5107842;28;20086;-72
2022/12/20 04:54:07;;;;;;;3.20;1.33;;;;;;;9.51;72.61;101186.06;5101443;28;20070;-73
2022/12/20 04:56:34;;;;;;;3.75;1.58;;;;;;;9.51;72.18;101183.38;5106782;28;20120;-73
2022/12/20 04:59:02;;;;;;;3.22;1.60;;;;;;;9.50;72.35;101177.19;5105549;28;20492;-73
2022/12/20 05:01:32;;;;;;;3.53;1.67;;;;;;;9.51;72.45;101178.84;5103032;28;20059;-73
2022/12/20 05:04:00;;;;;;;4.63;1.55;;;;;;;9.51;72.38;101178.84;5103159;28;20052;-73
2022/12/20 05:06:27;;;;;;;3.95;1.70;;;;;;;9.52;72.55;101176.97;5103258;28;20055;-72
2022/12/20 05:08:55;;;;;;;2.53;1.60;;;;;;;9.52;72.39;101169.75;5102659;28;20071;-73
2022/12/20 05:11:23;;;;;;;3.95;2.00;;;;;;;9.50;72.90;101166.47;5117117;28;20468;-73
2022/12/20 05:13:51;;;;;;;2.88;1.70;;;;;;;9.52;72.65;101160.88;5102058;28;20434;-72
2022/12/20 05:16:18;;;;;;;2.72;1.67;;;;;;;9.51;72.38;101162.75;5104507;28;20072;-73
2022/12/20 05:18:48;;;;;;;4.13;1.60;;;;;;;9.51;72.37;101168.13;5110285;28;20048;-72
2022/12/20 05:26:46;;;;;;;1.55;1.20;;;;;;;9.54;72.63;101151.59;5100459;28;20070;-72
2022/12/20 05:29:15;;;;;;;2.10;1.35;;;;;;;9.54;72.60;101143.56;5106044;28;20535;-73
2022/12/20 05:31:43;;;;;;;3.15;1.48;;;;;;;9.55;72.51;101147.06;5109779;28;20051;-72
2022/12/20 05:34:12;;;;;;;5.05;1.70;;;;;;;9.56;72.97;101148.72;5106442;28;20063;-73
2022/12/20 05:36:40;;;;;;;3.92;1.60;;;;;;;9.54;73.11;101143.56;5111720;28;20521;-73
2022/12/20 05:39:08;;;;;;;3.25;1.95;;;;;;;9.54;73.04;101135.50;5107837;28;20138;-73
2022/12/20 05:41:35;;;;;;;2.83;1.50;;;;;;;9.55;73.02;101136.31;5100379;28;20044;-73
2022/12/20 05:44:03;;;;;;;2.38;1.55;;;;;;;9.54;72.84;101126.63;5104848;28;20079;-73
2022/12/20 05:46:31;;;;;;;4.18;2.30;;;;;;;9.54;73.17;101132.81;5105238;28;20056;-73
2022/12/20 05:48:59;;;;;;;4.20;1.35;;;;;;;9.55;72.81;101133.66;5098890;28;20044;-73
2022/12/20 05:51:28;;;;;;;2.63;1.48;;;;;;;9.56;72.50;101133.44;5097848;28;20075;-73
2022/12/20 05:53:55;;;;;;;1.92;1.40;;;;;;;9.55;72.47;101134.47;5107267;28;20087;-73
2022/12/20 05:56:23;;;;;;;1.77;1.20;;;;;;;9.56;72.36;101130.75;5105194;28;20062;-73
2022/12/20 05:58:51;;;;;;;2.58;1.42;;;;;;;9.57;72.75;101116.31;5101981;28;20048;-74
2022/12/20 06:01:19;;;;;;;3.88;1.75;;;;;;;9.58;72.48;101115.28;5102448;28;20587;-76
2022/12/20 06:03:46;;;;;;;4.10;1.70;;;;;;;9.58;72.79;101114.44;5100985;28;20040;-75
2022/12/20 06:06:14;;;;;;;2.00;1.30;;;;;;;9.60;72.61;101107.00;5104811;28;20119;-75
2022/12/20 06:08:43;;;;;;;3.92;2.33;;;;;;;9.59;72.54;101094.63;5096195;28;20520;-74
2022/12/20 06:11:11;;;;;;;3.10;1.20;;;;;;;9.62;72.26;101092.34;5099462;28;20500;-72
2022/12/20 06:13:39;;;;;;;2.60;1.45;;;;;;;9.69;72.44;101081.59;5096637;28;20036;-73
2022/12/20 06:16:07;;;;;;;3.78;1.55;;;;;;;9.71;72.10;101079.53;5109504;28;20051;-74
2022/12/20 06:18:35;;;;;;;1.85;1.20;;;;;;;9.71;72.18;101076.84;5104653;28;20130;-69
2022/12/20 06:21:03;;;;;;;4.35;1.45;;;;;;;9.71;71.96;101084.91;5099398;28;20055;-71
2022/12/20 06:23:31;;;;;;;8.32;1.70;;;;;;;9.76;71.95;101085.09;5098762;28;20048;-70
2022/12/20 06:26:00;;;;;;;3.08;1.35;;;;;;;9.79;72.17;101082.00;5104038;28;20074;-73
2022/12/20 06:28:27;;;;;;;2.85;2.03;;;;;;;9.87;71.99;101075.56;5109231;28;20036;-74
2022/12/20 06:30:57;;;;;;;2.97;1.67;;;;;;;9.83;71.80;101079.72;5105890;28;20081;-74
2022/12/20 06:33:25;;;;;;;2.05;1.33;;;;;;;9.86;71.99;101081.97;5103271;28;20044;-74
2022/12/20 06:35:53;;;;;;;2.88;1.50;;;;;;;9.81;72.18;101090.66;5101573;28;20078;-78
2022/12/20 06:38:21;;;;;;;3.33;1.42;;;;;;;9.81;71.99;101095.19;5093158;28;20055;-66
2022/12/20 06:40:48;;;;;;;2.90;1.80;;;;;;;9.75;72.49;101086.94;5102187;28;20067;-80
2022/12/20 06:43:17;;;;;;;2.30;1.17;;;;;;;9.71;72.70;101080.34;4745561;28;10000326;-75
2022/12/20 06:45:45;;;;;;;3.70;1.48;;;;;;;9.70;72.68;101076.03;5097933;28;20052;-66
2022/12/20 06:48:13;;;;;;;3.72;1.40;;;;;;;9.68;72.51;101070.03;5099539;28;20063;-72
2022/12/20 06:50:41;;;;;;;4.18;1.80;;;;;;;9.70;72.89;101073.34;5100668;28;20111;-71
2022/12/20 06:53:08;;;;;;;1.85;1.38;;;;;;;9.60;72.12;101058.72;5098478;28;20052;-76
2022/12/20 06:55:36;;;;;;;3.75;2.00;;;;;;;9.69;72.21;101079.75;5093831;28;20131;-68
2022/12/20 06:58:04;;;;;;;1.88;1.33;;;;;;;9.68;72.94;101080.78;5109158;28;20555;-71
2022/12/20 07:00:33;;;;;;;3.08;1.60;;;;;;;9.67;72.82;101091.72;5100685;28;20075;-72
2022/12/20 07:03:01;;;;;;;1.65;1.13;;;;;;;9.66;72.56;101087.38;5101766;28;20127;-72
2022/12/20 07:05:29;;;;;;;2.22;1.52;;;;;;;9.65;72.63;101097.28;5105152;28;20135;-72
2022/12/20 07:07:57;;;;;;;3.80;1.50;;;;;;;9.64;72.59;101090.28;5104834;28;20056;-69
2022/12/20 07:10:25;;;;;;;2.88;1.42;;;;;;;9.64;72.64;101084.91;5108568;28;20067;-68
2022/12/20 07:12:52;;;;;;;4.55;1.50;;;;;;;9.64;72.74;101076.88;5106720;28;20051;-70
2022/12/20 07:15:21;;;;;;;2.42;1.30;;;;;;;9.64;72.46;101092.13;5105253;28;20075;-71
2022/12/20 07:17:51;;;;;;;6.15;1.77;;;;;;;9.64;72.03;101103.69;5107883;28;20040;-68
2022/12/20 07:20:19;;;;;;;2.50;1.50;;;;;;;9.64;72.60;101097.50;5105235;28;20131;-70
2022/12/20 07:22:47;;;;;;;3.55;1.55;;;;;;;9.64;72.55;101097.50;5108154;28;20047;-71
2022/12/20 07:25:15;;;;;;;1.92;1.25;;;;;;;9.63;72.34;101091.31;5109105;28;20044;-67
2022/12/20 07:27:46;;;;;;;3.97;1.30;;;;;;;9.55;72.19;101078.13;5109579;28;20052;-68
2022/12/20 07:30:14;;;;;;;2.40;1.45;;;;;;;9.63;72.09;101087.81;5102871;28;20086;-68
2022/12/20 07:32:42;;;;;;;2.23;1.30;;;;;;;9.63;72.12;101096.69;5109486;28;20051;-74
2022/12/20 07:35:11;;;;;;;3.83;1.83;;;;;;;9.64;71.99;101094.81;5105696;28;20047;-70
2022/12/20 07:37:40;;;;;;;2.72;1.67;;;;;;;9.63;72.42;101095.84;5121411;28;20090;-70
2022/12/20 07:40:09;;;;;;;4.53;1.50;;;;;;;9.64;72.54;101101.00;5115941;28;20079;-70
2022/12/20 07:42:36;;;;;;;1.77;1.17;;;;;;;9.64;72.08;101102.88;5096715;28;20063;-70
2022/12/20 07:45:14;;;;;;;2.85;1.55;;;;;;;9.55;72.68;101094.22;5097813;28;20463;-70
2022/12/20 07:47:42;;;;;;;3.60;1.55;;;;;;;9.64;72.55;101103.69;5107567;28;20047;-70
2022/12/20 07:50:12;;;;;;;5.75;1.50;;;;;;;9.65;72.07;101110.72;5101592;28;20060;-70
2022/12/20 07:52:42;;;;;;;3.50;1.30;;;;;;;9.65;72.48;101109.91;5104346;28;20576;-70
2022/12/20 07:55:11;;;;;;;2.13;1.65;;;;;;;9.64;71.80;101110.94;5104777;28;20048;-70
2022/12/20 07:57:42;;;;;;;3.63;1.67;;;;;;;9.65;72.23;101107.22;5094015;28;20083;-70
2022/12/20 08:00:11;;;;;;;5.38;1.50;;;;;;;9.66;71.90;101117.72;5101797;28;20056;-70
2022/12/20 08:02:43;;;;;;;3.92;1.73;;;;;;;9.61;72.08;101106.81;5105373;28;20075;-70
2022/12/20 08:05:12;;;;;;;3.17;1.50;;;;;;;9.69;71.87;101111.13;5101607;28;20052;-69
2022/12/20 08:07:42;;;;;;;4.63;1.63;;;;;;;9.68;71.89;101117.53;5105064;28;20101;-70
2022/12/20 08:10:13;;;;;;;5.80;1.73;;;;;;;9.67;72.18;101114.00;5097170;28;20052;-69
2022/12/20 08:12:44;;;;;;;3.13;1.60;;;;;;;9.69;71.82;101124.53;5101287;28;20048;-70
2022/12/20 08:15:12;;;;;;;2.42;1.40;;;;;;;9.62;72.28;101104.94;5105117;28;20058;-69
2022/12/20 08:17:39;;;;;;;4.07;1.85;;;;;;;9.70;71.73;101118.13;5098137;28;20102;-70
2022/12/20 08:20:08;;;;;;;2.20;1.08;;;;;;;9.70;71.75;101118.97;5084120;28;20071;-70
2022/12/20 08:22:37;;;;;;;1.55;1.23;;;;;;;9.70;71.61;101121.66;5097570;28;20083;-70
2022/12/20 08:25:06;;;;;;;4.25;2.00;;;;;;;9.69;71.74;101113.81;5102047;28;20382;-70
2022/12/20 08:27:34;;;;;;;2.67;1.15;;;;;;;9.70;71.81;101112.78;5101381;28;20087;-70
2022/12/20 08:30:01;;;;;;;3.58;1.35;;;;;;;9.68;72.01;101107.63;5100794;28;20412;-70
2022/12/20 08:32:29;;;;;;;2.03;1.35;;;;;;;9.70;72.01;101108.22;5101788;28;20058;-69
2022/12/20 08:34:57;;;;;;;2.55;1.35;;;;;;;9.70;72.23;101110.09;5097083;28;20139;-67
2022/12/20 08:37:25;;;;;;;2.60;1.60;;;;;;;9.73;72.75;101104.31;5104222;28;20109;-71
2022/12/20 08:39:54;;;;;;;2.35;1.30;;;;;;;9.72;72.52;101102.66;5104777;28;20116;-66
2022/12/20 08:42:22;;;;;;;2.65;1.15;;;;;;;9.74;72.82;101109.47;5097962;28;20056;-66
2022/12/20 08:44:50;;;;;;;2.20;1.13;;;;;;;9.74;72.33;101098.72;5104387;28;20044;-67
2022/12/20 08:47:17;;;;;;;4.13;1.60;;;;;;;9.75;72.37;101104.91;5096203;28;20058;-68
2022/12/20 08:49:45;;;;;;;3.30;1.23;;;;;;;9.84;72.08;101095.59;5104894;28;20046;-68
2022/12/20 08:52:15;;;;;;;3.75;1.60;;;;;;;9.94;71.94;101093.31;5104159;28;20139;-68
2022/12/20 08:54:42;;;;;;;2.88;1.35;;;;;;;10.12;71.15;101092.63;5105409;28;20040;-71
2022/12/20 08:57:11;;;;;;;2.20;1.40;;;;;;;10.28;70.75;101099.41;5094964;28;20056;-68
2022/12/20 08:59:39;;;;;;;3.47;1.30;;;;;;;10.43;70.47;101094.53;5103694;28;20127;-68
2022/12/20 09:02:07;;;;;;;4.00;1.40;;;;;;;10.61;69.88;101080.38;5104025;28;20108;-68
2022/12/20 09:04:35;;;;;;;2.80;1.40;;;;;;;10.77;69.06;101083.38;5091744;28;20056;-68
2022/12/20 09:07:03;;;;;;;1.45;1.02;;;;;;;10.93;68.85;101079.34;5104844;28;20052;-68
2022/12/20 09:09:31;;;;;;;2.10;1.35;;;;;;;11.09;68.22;101073.41;5095827;28;20116;-68
2022/12/20 09:11:58;;;;;;;2.67;1.50;;;;;;;11.21;67.78;101065.44;5104049;28;20048;-68
2022/12/20 09:14:27;;;;;;;6.60;1.80;;;;;;;11.34;67.63;101061.81;5090018;28;20048;-67
2022/12/20 09:16:55;;;;;;;1.88;1.30;;;;;;;11.44;67.11;101072.06;5103021;28;20073;-67
2022/12/20 09:19:23;;;;;;;3.65;1.30;;;;;;;11.48;66.95;101067.91;5104574;28;20044;-67
2022/12/20 09:21:51;;;;;;;3.88;2.22;;;;;;;11.46;66.60;101062.75;5101484;28;20058;-67
2022/12/20 09:24:19;;;;;;;2.03;1.10;;;;;;;11.58;66.86;101068.22;5104586;28;20060;-67
2022/12/20 09:26:47;;;;;;;1.83;1.20;;;;;;;11.63;66.81;101071.06;5101491;28;20103;-67
2022/12/20 09:29:19;;;;;;;2.92;1.45;;;;;;;11.64;66.51;101072.69;5091790;28;20048;-67
2022/12/20 09:31:57;;;;;;;3.58;1.50;;;;;;;11.65;66.50;101077.03;5103568;28;20136;-67
2022/12/20 09:34:25;;;;;;;4.68;1.70;;;;;;;11.67;66.55;101070.38;5104411;28;20044;-68
2022/12/20 09:36:53;;;;;;;5.03;1.50;;;;;;;11.69;66.77;101072.84;5096712;28;20139;-67
2022/12/20 09:39:21;;;;;;;2.72;1.35;;;;;;;11.72;66.50;101067.84;5098775;28;20059;-67
2022/12/20 09:41:49;;;;;;;2.78;1.40;;;;;;;11.75;66.82;101069.28;5092029;28;20048;-67
2022/12/20 09:44:24;;;;;;;4.10;1.20;;;;;;;11.76;66.77;101068.22;5103209;28;20120;-67
2022/12/20 09:46:55;;;;;;;3.08;1.70;;;;;;;11.77;66.29;101077.97;5100556;28;20076;-67
2022/12/20 09:49:30;;;;;;;3.97;1.50;;;;;;;11.80;66.23;101082.09;5103924;28;20106;-67
2022/12/20 09:52:37;;;;;;;4.18;1.50;;;;;;;11.84;66.77;101077.91;5091145;28;20541;-67
2022/12/20 09:55:19;;;;;;;2.42;1.40;;;;;;;11.89;66.10;101067.28;5085778;28;20064;-67
2022/12/20 09:57:57;;;;;;;1.55;1.20;;;;;;;11.91;66.02;101057.94;5090708;28;20086;-68
2022/12/20 10:00:25;;;;;;;1.98;1.27;;;;;;;11.92;66.10;101061.44;5102242;28;20059;-68
2022/12/20 10:02:53;;;;;;;1.58;1.23;;;;;;;11.84;66.41;101062.56;5101524;28;20344;-68
2022/12/20 10:05:39;;;;;;;2.50;1.33;;;;;;;11.70;66.95;101069.94;5100633;28;20067;-68
2022/12/20 10:08:16;;;;;;;2.92;1.38;;;;;;;11.52;67.39;101059.16;5104086;28;20054;-68
2022/12/20 10:10:54;;;;;;;2.92;1.42;;;;;;;11.34;68.03;101061.81;5103248;28;20469;-68
2022/12/20 10:13:37;;;;;;;3.65;1.65;;;;;;;11.21;68.58;101064.63;5098451;28;20051;-68
2022/12/20 10:16:19;;;;;;;2.55;1.35;;;;;;;11.09;68.98;101059.97;5102993;28;20036;-68
2022/12/20 10:19:02;;;;;;;3.55;1.70;;;;;;;11.01;69.41;101059.41;5093110;28;20056;-68
2022/12/20 10:21:43;;;;;;;2.42;1.40;;;;;;;10.93;69.69;101063.19;5099490;28;20545;-68
2022/12/20 10:24:16;;;;;;;1.60;1.20;;;;;;;10.87;69.73;101060.56;5102396;28;20043;-68
2022/12/20 10:26:45;;;;;;;4.97;1.73;;;;;;;10.81;70.78;101064.94;5102446;28;20047;-68
2022/12/20 10:29:13;;;;;;;2.20;1.15;;;;;;;10.86;70.28;101067.81;5109147;28;20075;-66
2022/12/20 10:31:41;;;;;;;6.07;2.03;;;;;;;10.98;69.93;101067.94;5102895;28;20107;-66
2022/12/20 10:34:09;;;;;;;3.80;1.13;;;;;;;11.14;69.43;101072.75;5109140;28;20057;-67
2022/12/20 10:36:38;;;;;;;5.35;1.30;;;;;;;11.30;69.01;101064.13;5106233;28;20103;-68
2022/12/20 10:39:08;;;;;;;7.25;2.03;;;;;;;11.46;68.77;101056.53;5106252;28;20040;-68
2022/12/20 10:41:48;;;;;;;2.22;1.10;;;;;;;11.62;67.97;101054.09;5103098;28;20048;-67
2022/12/20 10:44:20;;;;;;;2.28;1.27;;;;;;;11.73;67.81;101047.94;5101292;28;20103;-67
2022/12/20 10:46:52;;;;;;;3.70;1.30;;;;;;;11.85;67.35;101050.75;5103649;28;20080;-68
2022/12/20 10:49:29;;;;;;;1.95;1.23;;;;;;;11.98;66.55;101049.75;5090916;28;20055;-67
2022/12/20 10:52:02;;;;;;;3.88;1.63;;;;;;;12.08;66.50;101044.66;5095919;28;20063;-67
2022/12/20 10:54:33;;;;;;;3.53;1.20;;;;;;;12.15;66.48;101037.28;5094722;28;20072;-67
2022/12/20 10:57:03;;;;;;;3.22;1.25;;;;;;;12.17;66.12;101051.34;5090036;28;20059;-67
2022/12/20 10:59:34;;;;;;;2.13;1.10;;;;;;;12.18;66.30;101044.91;5101973;28;20048;-67
2022/12/20 11:02:23;;;;;;;1.67;1.35;;;;;;;12.19;66.26;101043.88;5099805;28;20048;-67
2022/12/20 11:04:59;;;;;;;6.60;1.48;;;;;;;12.22;66.21;101042.59;5097841;28;20048;-67
2022/12/20 11:07:31;;;;;;;2.28;1.20;;;;;;;12.23;66.31;101046.94;5102808;28;20044;-68
2022/12/20 11:10:01;;;;;;;5.53;1.70;;;;;;;12.20;66.23;101044.69;5097902;28;20062;-68
2022/12/20 11:12:29;;;;;;;2.63;1.20;;;;;;;12.10;66.60;101047.97;5102932;28;20115;-67
2022/12/20 11:15:09;;;;;;;2.63;1.30;;;;;;;11.95;67.13;101037.56;5098496;28;20359;-67
2022/12/20 11:17:41;;;;;;;2.28;1.48;;;;;;;11.74;67.61;101036.13;5092313;28;20056;-67
2022/12/20 11:20:25;;;;;;;2.53;1.52;;;;;;;11.56;68.56;101033.44;5102004;28;20058;-68
2022/12/20 11:23:07;;;;;;;4.22;1.77;;;;;;;11.43;68.83;101033.56;5102475;28;20366;-68
2022/12/20 11:25:52;;;;;;;3.90;1.88;;;;;;;11.30;69.39;101031.84;5101421;28;20044;-68
2022/12/20 11:28:36;;;;;;;3.25;1.50;;;;;;;11.24;69.73;101034.59;5101656;28;20104;-67
2022/12/20 11:31:15;;;;;;;4.70;1.70;;;;;;;11.14;70.16;101032.41;5082710;28;20084;-67
2022/12/20 11:34:00;;;;;;;3.42;1.63;;;;;;;11.09;70.45;101027.69;5091946;28;20106;-67
2022/12/20 11:36:38;;;;;;;3.60;1.65;;;;;;;11.05;70.49;101022.97;5098779;28;20105;-68
2022/12/20 11:39:15;;;;;;;5.95;1.40;;;;;;;11.00;70.75;101018.25;5101940;28;20040;-67
2022/12/20 11:41:50;;;;;;;3.03;1.10;;;;;;;10.96;70.98;101025.13;5097161;28;20072;-68
2022/12/20 11:44:25;;;;;;;3.67;1.58;;;;;;;10.91;71.02;101016.88;5105835;28;20111;-68
2022/12/20 11:47:19;;;;;;;2.97;1.40;;;;;;;10.87;71.29;101018.38;5098876;28;20074;-68
2022/12/20 11:50:00;;;;;;;3.70;1.73;;;;;;;10.85;71.27;101009.69;5103001;28;20093;-68
2022/12/20 11:52:36;;;;;;;3.42;1.45;;;;;;;10.83;71.34;101002.91;5096674;28;20063;-68
2022/12/20 11:55:20;;;;;;;4.35;1.38;;;;;;;10.80;71.65;101006.84;5098876;28;20443;-68
2022/12/20 11:57:56;;;;;;;2.15;1.58;;;;;;;10.79;71.64;101004.38;5064625;28;20167;-68